createdAt,value
2023-03-04T00:00:28.670Z,0.68
2023-03-04T00:01:28.656Z,0.60
2023-03-04T00:02:28.693Z,0.65
2023-03-04T00:03:28.710Z,0.62
2023-03-04T00:04:28.627Z,0.56
2023-03-04T00:05:28.632Z,0.63
2023-03-04T00:06:28.610Z,0.58
2023-03-04T00:07:28.656Z,0.60
2023-03-04T00:08:28.607Z,0.68
2023-03-04T00:09:28.576Z,0.66
2023-03-04T00:10:28.548Z,0.66
2023-03-04T00:11:28.551Z,0.65
2023-03-04T00:12:28.540Z,0.69
2023-03-04T00:13:28.528Z,0.69
2023-03-04T00:14:30.433Z,0.58
2023-03-04T00:15:28.498Z,0.60
2023-03-04T00:16:28.609Z,0.66
2023-03-04T00:17:28.477Z,0.62
2023-03-04T00:18:28.475Z,0.55
2023-03-04T00:19:28.475Z,0.68
2023-03-04T00:20:28.501Z,0.63
2023-03-04T00:21:28.457Z,0.62
2023-03-04T00:22:28.428Z,0.50
2023-03-04T00:23:28.414Z,0.58
2023-03-04T00:24:28.404Z,0.58
2023-03-04T00:25:28.401Z,0.65
2023-03-04T00:26:28.457Z,0.59
2023-03-04T00:27:28.396Z,0.60
2023-03-04T00:28:28.370Z,0.62
2023-03-04T00:29:28.342Z,0.56
2023-03-04T00:30:28.334Z,0.58
2023-03-04T00:31:28.385Z,0.65
2023-03-04T00:32:28.406Z,0.68
2023-03-04T00:33:28.353Z,0.70
2023-03-04T00:34:28.288Z,0.66
2023-03-04T00:35:28.391Z,0.59
2023-03-04T00:36:28.273Z,0.63
2023-03-04T00:37:28.303Z,0.59
2023-03-04T00:38:28.286Z,0.62
2023-03-04T00:39:28.261Z,0.52
2023-03-04T00:40:28.228Z,0.59
2023-03-04T00:41:28.210Z,0.60
2023-03-04T00:42:28.202Z,0.65
2023-03-04T00:43:28.188Z,0.60
2023-03-04T00:44:28.228Z,0.63
2023-03-04T00:45:28.169Z,0.59
2023-03-04T00:46:28.165Z,0.50
2023-03-04T00:47:28.161Z,0.55
2023-03-04T00:48:28.130Z,0.62
2023-03-04T00:49:28.121Z,0.69
2023-03-04T00:50:28.147Z,0.62
2023-03-04T00:51:28.124Z,0.68
2023-03-04T00:52:28.096Z,0.62
2023-03-04T00:53:28.113Z,0.63
2023-03-04T00:54:28.071Z,0.59
2023-03-04T00:55:28.062Z,0.68
2023-03-04T00:56:28.067Z,0.65
2023-03-04T00:57:28.031Z,0.66
2023-03-04T00:58:28.032Z,0.65
2023-03-04T00:59:28.021Z,0.69
2023-03-04T01:00:28.001Z,0.76
2023-03-04T01:01:28.056Z,0.65
2023-03-04T01:02:27.998Z,0.76
2023-03-04T01:03:27.996Z,0.70
2023-03-04T01:04:27.982Z,0.63
2023-03-04T01:05:27.953Z,0.77
2023-03-04T01:06:27.933Z,0.73
2023-03-04T01:07:27.926Z,0.66
2023-03-04T01:08:27.942Z,0.77
2023-03-04T01:09:27.927Z,0.58
2023-03-04T01:10:27.911Z,0.62
2023-03-04T01:11:27.875Z,0.66
2023-03-04T01:12:27.874Z,0.70
2023-03-04T01:13:27.872Z,0.70
2023-03-04T01:14:27.888Z,0.62
2023-03-04T01:15:27.855Z,0.63
2023-03-04T01:16:27.848Z,0.68
2023-03-04T01:17:27.819Z,0.69
2023-03-04T01:18:27.809Z,0.58
2023-03-04T01:19:27.795Z,0.56
2023-03-04T01:20:27.832Z,0.58
2023-03-04T01:21:27.799Z,0.59
2023-03-04T01:22:27.756Z,0.59
2023-03-04T01:23:27.772Z,0.56
2023-03-04T01:24:27.736Z,0.59
2023-03-04T01:25:27.750Z,0.59
2023-03-04T01:26:27.791Z,0.58
2023-03-04T01:27:27.738Z,0.62
2023-03-04T01:28:27.696Z,0.60
2023-03-04T01:29:30.174Z,0.65
2023-03-04T01:30:27.674Z,0.60
2023-03-04T01:31:27.676Z,0.56
2023-03-04T01:32:27.742Z,0.63
2023-03-04T01:33:27.655Z,0.58
2023-03-04T01:34:27.632Z,0.63
2023-03-04T01:35:27.649Z,0.58
2023-03-04T01:36:27.640Z,0.49
2023-03-04T01:37:27.591Z,0.56
2023-03-04T01:38:27.622Z,0.52
2023-03-04T01:39:27.574Z,0.55
2023-03-04T01:40:27.556Z,0.58
2023-03-04T01:41:27.623Z,0.59
2023-03-04T01:42:27.535Z,0.47
2023-03-04T01:43:27.530Z,0.58
2023-03-04T01:44:27.556Z,0.65
2023-03-04T01:45:27.506Z,0.60
2023-03-04T01:46:27.618Z,0.55
2023-03-04T01:47:27.487Z,0.62
2023-03-04T01:48:27.474Z,0.63
2023-03-04T01:49:27.464Z,0.60
2023-03-04T01:50:27.482Z,0.59
2023-03-04T01:51:27.444Z,0.63
2023-03-04T01:52:27.433Z,0.63
2023-03-04T01:53:27.413Z,0.68
2023-03-04T01:54:27.410Z,0.62
2023-03-04T01:55:27.401Z,0.49
2023-03-04T01:56:27.416Z,0.56
2023-03-04T01:57:27.407Z,0.46
2023-03-04T01:58:27.362Z,0.59
2023-03-04T01:59:27.370Z,0.58
2023-03-04T02:00:27.342Z,0.59
2023-03-04T02:01:27.425Z,0.50
2023-03-04T02:02:27.412Z,0.59
2023-03-04T02:03:27.323Z,0.63
2023-03-04T02:04:27.474Z,0.52
2023-03-04T02:05:27.305Z,0.65
2023-03-04T02:06:27.281Z,0.50
2023-03-04T02:07:27.264Z,0.47
2023-03-04T02:08:27.291Z,0.58
2023-03-04T02:09:27.242Z,0.52
2023-03-04T02:10:27.243Z,0.46
2023-03-04T02:11:27.229Z,0.55
2023-03-04T02:12:27.208Z,0.41
2023-03-04T02:13:27.232Z,0.44
2023-03-04T02:14:27.244Z,0.41
2023-03-04T02:15:27.184Z,0.44
2023-03-04T02:16:27.183Z,0.37
2023-03-04T02:17:27.192Z,0.34
2023-03-04T02:18:27.146Z,0.46
2023-03-04T02:19:27.136Z,0.46
2023-03-04T02:20:27.162Z,0.37
2023-03-04T02:21:27.128Z,0.36
2023-03-04T02:22:27.100Z,0.37
2023-03-04T02:23:27.254Z,0.39
2023-03-04T02:24:27.096Z,0.43
2023-03-04T02:25:27.062Z,0.40
2023-03-04T02:26:27.091Z,0.41
2023-03-04T02:27:27.052Z,0.40
2023-03-04T02:28:27.039Z,0.41
2023-03-04T02:29:27.054Z,0.36
2023-03-04T02:30:27.011Z,0.39
2023-03-04T02:31:27.084Z,0.37
2023-03-04T02:32:27.090Z,0.40
2023-03-04T02:33:26.990Z,0.36
2023-03-04T02:34:26.974Z,0.41
2023-03-04T02:35:27.009Z,0.43
2023-03-04T02:36:26.948Z,0.41
2023-03-04T02:37:26.934Z,0.31
2023-03-04T02:38:26.968Z,0.39
2023-03-04T02:39:26.909Z,0.43
2023-03-04T02:40:26.904Z,0.40
2023-03-04T02:41:26.893Z,0.40
2023-03-04T02:42:26.882Z,0.34
2023-03-04T02:43:26.868Z,0.34
2023-03-04T02:44:26.889Z,0.26
2023-03-04T02:45:26.873Z,0.26
2023-03-04T02:46:26.872Z,0.34
2023-03-04T02:47:26.826Z,0.26
2023-03-04T02:48:26.817Z,0.34
2023-03-04T02:49:26.804Z,0.28
2023-03-04T02:50:26.828Z,0.34
2023-03-04T02:51:26.781Z,0.37
2023-03-04T02:52:26.775Z,0.26
2023-03-04T02:53:26.761Z,0.26
2023-03-04T02:54:26.751Z,0.26
2023-03-04T02:55:26.738Z,0.28
2023-03-04T02:56:26.802Z,0.23
2023-03-04T02:57:26.721Z,0.32
2023-03-04T02:58:26.724Z,0.39
2023-03-04T02:59:26.704Z,0.31
2023-03-04T03:00:26.682Z,0.43
2023-03-04T03:01:26.722Z,0.37
2023-03-04T03:02:26.735Z,0.39
2023-03-04T03:03:26.656Z,0.40
2023-03-04T03:04:26.631Z,0.34
2023-03-04T03:05:26.643Z,0.32
2023-03-04T03:06:26.614Z,0.39
2023-03-04T03:07:26.607Z,0.31
2023-03-04T03:08:26.627Z,0.40
2023-03-04T03:09:26.583Z,0.34
2023-03-04T03:10:26.582Z,0.32
2023-03-04T03:11:26.851Z,0.25
2023-03-04T03:12:26.553Z,0.21
2023-03-04T03:13:26.540Z,0.25
2023-03-04T03:14:26.701Z,0.40
2023-03-04T03:15:26.534Z,0.23
2023-03-04T03:16:26.681Z,0.25
2023-03-04T03:17:26.522Z,0.36
2023-03-04T03:18:26.507Z,0.26
2023-03-04T03:19:26.467Z,0.34
2023-03-04T03:20:26.525Z,0.31
2023-03-04T03:21:26.448Z,0.28
2023-03-04T03:22:26.439Z,0.31
2023-03-04T03:23:26.434Z,0.28
2023-03-04T03:24:26.414Z,0.26
2023-03-04T03:25:26.408Z,0.23
2023-03-04T03:26:26.483Z,0.22
2023-03-04T03:27:26.383Z,0.32
2023-03-04T03:28:26.382Z,0.16
2023-03-04T03:29:26.358Z,0.25
2023-03-04T03:30:26.371Z,0.34
2023-03-04T03:31:26.373Z,0.19
2023-03-04T03:32:26.400Z,0.25
2023-03-04T03:33:26.346Z,0.34
2023-03-04T03:34:26.309Z,0.28
2023-03-04T03:35:26.448Z,0.25
2023-03-04T03:36:26.338Z,0.26
2023-03-04T03:37:26.272Z,0.28
2023-03-04T03:38:26.294Z,0.37
2023-03-04T03:39:26.251Z,0.21
2023-03-04T03:40:26.241Z,0.34
2023-03-04T03:41:26.241Z,0.34
2023-03-04T03:42:26.288Z,0.40
2023-03-04T03:43:26.208Z,0.29
2023-03-04T03:44:26.290Z,0.31
2023-03-04T03:45:26.250Z,0.40
2023-03-04T03:46:26.170Z,0.32
2023-03-04T03:47:26.157Z,0.41
2023-03-04T03:48:26.154Z,0.44
2023-03-04T03:49:26.166Z,0.32
2023-03-04T03:50:26.220Z,0.40
2023-03-04T03:51:26.119Z,0.36
2023-03-04T03:52:26.115Z,0.37
2023-03-04T03:53:26.097Z,0.32
2023-03-04T03:54:26.101Z,0.39
2023-03-04T03:55:26.076Z,0.34
2023-03-04T03:56:26.103Z,0.26
2023-03-04T03:57:26.047Z,0.34
2023-03-04T03:58:26.038Z,0.36
2023-03-04T03:59:26.052Z,0.49
2023-03-04T04:00:26.029Z,0.34
2023-03-04T04:01:26.030Z,0.37
2023-03-04T04:02:26.154Z,0.40
2023-03-04T04:03:26.127Z,0.40
2023-03-04T04:04:25.970Z,0.43
2023-03-04T04:05:26.032Z,0.44
2023-03-04T04:06:25.948Z,0.41
2023-03-04T04:07:25.961Z,0.40
2023-03-04T04:08:25.965Z,0.41
2023-03-04T04:09:25.917Z,0.32
2023-03-04T04:10:25.927Z,0.40
2023-03-04T04:11:25.913Z,0.32
2023-03-04T04:12:25.886Z,0.41
2023-03-04T04:13:25.872Z,0.40
2023-03-04T04:14:25.926Z,0.36
2023-03-04T04:15:25.856Z,0.40
2023-03-04T04:16:25.977Z,0.39
2023-03-04T04:17:25.841Z,0.40
2023-03-04T04:18:25.833Z,0.39
2023-03-04T04:19:25.806Z,0.29
2023-03-04T04:20:26.387Z,0.36
2023-03-04T04:21:25.810Z,0.43
2023-03-04T04:22:25.809Z,0.37
2023-03-04T04:23:25.763Z,0.41
2023-03-04T04:24:25.753Z,0.29
2023-03-04T04:25:25.758Z,0.31
2023-03-04T04:26:25.787Z,0.41
2023-03-04T04:27:25.724Z,0.43
2023-03-04T04:28:25.717Z,0.40
2023-03-04T04:29:25.704Z,0.34
2023-03-04T04:30:25.753Z,0.37
2023-03-04T04:31:25.682Z,0.36
2023-03-04T04:32:25.729Z,0.34
2023-03-04T04:33:25.660Z,0.31
2023-03-04T04:34:25.646Z,0.31
2023-03-04T04:35:25.645Z,0.32
2023-03-04T04:36:25.622Z,0.23
2023-03-04T04:37:25.630Z,0.32
2023-03-04T04:38:25.626Z,0.26
2023-03-04T04:39:25.620Z,0.29
2023-03-04T04:40:25.578Z,0.28
2023-03-04T04:41:25.557Z,0.23
2023-03-04T04:42:25.575Z,0.29
2023-03-04T04:43:25.540Z,0.25
2023-03-04T04:44:25.556Z,0.26
2023-03-04T04:45:25.522Z,0.23
2023-03-04T04:46:25.585Z,0.19
2023-03-04T04:47:25.500Z,0.28
2023-03-04T04:48:25.483Z,0.26
2023-03-04T04:49:25.467Z,0.26
2023-03-04T04:50:25.508Z,0.26
2023-03-04T04:51:25.452Z,0.23
2023-03-04T04:52:25.437Z,0.29
2023-03-04T04:53:25.463Z,0.29
2023-03-04T04:54:25.418Z,0.26
2023-03-04T04:55:25.408Z,0.32
2023-03-04T04:56:25.465Z,0.37
2023-03-04T04:57:25.418Z,0.25
2023-03-04T04:58:25.374Z,0.36
2023-03-04T04:59:25.385Z,0.40
2023-03-04T05:00:25.369Z,0.39
2023-03-04T05:01:25.422Z,0.36
2023-03-04T05:02:25.376Z,0.28
2023-03-04T05:03:25.365Z,0.40
2023-03-04T05:04:25.315Z,0.39
2023-03-04T05:05:25.340Z,0.29
2023-03-04T05:06:25.292Z,0.40
2023-03-04T05:07:25.291Z,0.36
2023-03-04T05:08:25.341Z,0.26
2023-03-04T05:09:25.282Z,0.19
2023-03-04T05:10:25.244Z,0.25
2023-03-04T05:11:25.236Z,0.26
2023-03-04T05:12:25.241Z,0.32
2023-03-04T05:13:25.216Z,0.21
2023-03-04T05:14:25.244Z,0.29
2023-03-04T05:15:25.194Z,0.25
2023-03-04T05:16:25.180Z,0.25
2023-03-04T05:17:25.167Z,0.26
2023-03-04T05:18:25.160Z,0.25
2023-03-04T05:19:25.179Z,0.31
2023-03-04T05:20:25.209Z,0.25
2023-03-04T05:21:25.119Z,0.25
2023-03-04T05:22:25.150Z,0.23
2023-03-04T05:23:25.124Z,0.29
2023-03-04T05:24:25.092Z,0.26
2023-03-04T05:25:25.122Z,0.34
2023-03-04T05:26:25.115Z,0.40
2023-03-04T05:27:25.067Z,0.39
2023-03-04T05:28:25.042Z,0.40
2023-03-04T05:29:25.033Z,0.37
2023-03-04T05:30:25.092Z,0.31
2023-03-04T05:31:25.120Z,0.36
2023-03-04T05:32:25.112Z,0.41
2023-03-04T05:33:25.030Z,0.43
2023-03-04T05:34:24.979Z,0.40
2023-03-04T05:35:27.843Z,0.32
2023-03-04T05:36:24.955Z,0.44
2023-03-04T05:37:24.952Z,0.49
2023-03-04T05:38:24.998Z,0.50
2023-03-04T05:39:24.926Z,0.50
2023-03-04T05:40:24.930Z,0.58
2023-03-04T05:41:24.926Z,0.58
2023-03-04T05:42:24.906Z,0.44
2023-03-04T05:43:24.884Z,0.60
2023-03-04T05:44:24.901Z,0.58
2023-03-04T05:45:24.870Z,0.56
2023-03-04T05:46:24.955Z,0.59
2023-03-04T05:47:24.849Z,0.46
2023-03-04T05:48:24.843Z,0.47
2023-03-04T05:49:24.822Z,0.52
2023-03-04T05:50:24.848Z,0.50
2023-03-04T05:51:24.826Z,0.60
2023-03-04T05:52:24.786Z,0.52
2023-03-04T05:53:24.779Z,0.52
2023-03-04T05:54:24.766Z,0.49
2023-03-04T05:55:24.806Z,0.50
2023-03-04T05:56:24.776Z,0.49
2023-03-04T05:57:24.760Z,0.49
2023-03-04T05:58:24.726Z,0.46
2023-03-04T05:59:24.734Z,0.47
2023-03-04T06:00:24.721Z,0.49
2023-03-04T06:01:24.716Z,0.44
2023-03-04T06:02:24.796Z,0.55
2023-03-04T06:03:24.798Z,0.56
2023-03-04T06:04:24.663Z,0.50
2023-03-04T06:05:24.660Z,0.50
2023-03-04T06:06:24.654Z,0.47
2023-03-04T06:07:24.649Z,0.52
2023-03-04T06:08:24.725Z,0.43
2023-03-04T06:09:24.614Z,0.50
2023-03-04T06:10:24.588Z,0.52
2023-03-04T06:11:24.573Z,0.52
2023-03-04T06:12:24.569Z,0.49
2023-03-04T06:13:24.573Z,0.62
2023-03-04T06:14:24.646Z,0.50
2023-03-04T06:15:24.537Z,0.63
2023-03-04T06:16:24.657Z,0.69
2023-03-04T06:17:24.528Z,0.70
2023-03-04T06:18:24.498Z,0.70
2023-03-04T06:19:24.491Z,0.78
2023-03-04T06:20:24.565Z,0.77
2023-03-04T06:21:24.494Z,0.83
2023-03-04T06:22:24.458Z,0.91
2023-03-04T06:23:24.442Z,0.91
2023-03-04T06:24:24.433Z,0.94
2023-03-04T06:25:24.427Z,0.98
2023-03-04T06:26:24.446Z,0.88
2023-03-04T06:27:24.469Z,1.01
2023-03-04T06:28:24.388Z,0.94
2023-03-04T06:29:24.440Z,1.12
2023-03-04T06:30:24.372Z,1.12
2023-03-04T06:31:24.391Z,0.99
2023-03-04T06:32:24.538Z,1.10
2023-03-04T06:33:24.342Z,1.06
2023-03-04T06:34:24.345Z,1.08
2023-03-04T06:35:24.328Z,1.16
2023-03-04T06:36:24.310Z,1.20
2023-03-04T06:37:24.311Z,1.22
2023-03-04T06:38:24.352Z,1.19
2023-03-04T06:39:24.279Z,1.20
2023-03-04T06:40:24.254Z,1.26
2023-03-04T06:41:24.253Z,1.26
2023-03-04T06:42:24.230Z,1.32
2023-03-04T06:43:24.232Z,1.37
2023-03-04T06:44:24.276Z,1.34
2023-03-04T06:45:24.224Z,1.38
2023-03-04T06:46:24.305Z,1.45
2023-03-04T06:47:24.179Z,1.49
2023-03-04T06:48:24.167Z,1.55
2023-03-04T06:49:24.162Z,1.58
2023-03-04T06:50:24.179Z,1.58
2023-03-04T06:51:24.139Z,1.63
2023-03-04T06:52:24.130Z,1.60
2023-03-04T06:53:24.164Z,1.66
2023-03-04T06:54:24.105Z,1.71
2023-03-04T06:55:24.087Z,1.77
2023-03-04T06:56:24.120Z,1.70
2023-03-04T06:57:24.066Z,1.85
2023-03-04T06:58:24.060Z,1.92
2023-03-04T06:59:24.051Z,1.78
2023-03-04T07:00:24.087Z,1.94
2023-03-04T07:01:24.050Z,2.02
2023-03-04T07:02:24.049Z,2.00
2023-03-04T07:03:24.008Z,2.06
2023-03-04T07:04:24.148Z,2.02
2023-03-04T07:05:23.984Z,2.14
2023-03-04T07:06:23.983Z,2.11
2023-03-04T07:07:23.963Z,2.17
2023-03-04T07:08:23.987Z,2.20
2023-03-04T07:09:23.939Z,2.25
2023-03-04T07:10:23.949Z,2.32
2023-03-04T07:11:23.939Z,2.31
2023-03-04T07:12:23.925Z,2.35
2023-03-04T07:13:23.891Z,2.46
2023-03-04T07:14:24.395Z,2.50
2023-03-04T07:15:23.872Z,2.44
2023-03-04T07:16:24.036Z,2.60
2023-03-04T07:17:23.878Z,2.56
2023-03-04T07:18:23.974Z,2.64
2023-03-04T07:19:23.833Z,2.71
2023-03-04T07:20:23.932Z,2.69
2023-03-04T07:21:23.803Z,2.85
2023-03-04T07:22:23.796Z,2.77
2023-03-04T07:23:23.804Z,2.79
2023-03-04T07:24:23.784Z,2.93
2023-03-04T07:25:23.772Z,2.87
2023-03-04T07:26:23.790Z,2.90
2023-03-04T07:27:23.739Z,2.98
2023-03-04T07:28:23.755Z,3.07
2023-03-04T07:29:23.717Z,3.05
2023-03-04T07:30:23.705Z,3.05
2023-03-04T07:31:23.766Z,3.14
2023-03-04T07:32:23.983Z,3.19
2023-03-04T07:33:23.759Z,3.14
2023-03-04T07:34:23.698Z,3.25
2023-03-04T07:35:23.659Z,3.31
2023-03-04T07:36:23.643Z,3.36
2023-03-04T07:37:23.619Z,3.37
2023-03-04T07:38:23.663Z,3.41
2023-03-04T07:39:23.619Z,3.47
2023-03-04T07:40:23.593Z,3.44
2023-03-04T07:41:23.626Z,3.55
2023-03-04T07:42:23.564Z,3.58
2023-03-04T07:43:23.561Z,3.68
2023-03-04T07:44:23.594Z,3.70
2023-03-04T07:45:23.566Z,3.70
2023-03-04T07:46:23.547Z,3.74
2023-03-04T07:47:23.515Z,3.86
2023-03-04T07:48:23.519Z,3.88
2023-03-04T07:49:23.519Z,3.87
2023-03-04T07:50:23.512Z,3.95
2023-03-04T07:51:23.479Z,4.01
2023-03-04T07:52:23.460Z,4.01
2023-03-04T07:53:23.475Z,4.04
2023-03-04T07:54:23.475Z,4.10
2023-03-04T07:55:23.429Z,4.14
2023-03-04T07:56:23.454Z,4.14
2023-03-04T07:57:23.406Z,4.26
2023-03-04T07:58:23.404Z,4.32
2023-03-04T07:59:23.397Z,4.34
2023-03-04T08:00:23.381Z,4.38
2023-03-04T08:01:23.356Z,4.38
2023-03-04T08:02:23.413Z,4.44
2023-03-04T08:03:23.342Z,4.48
2023-03-04T08:04:23.380Z,4.49
2023-03-04T08:05:23.348Z,4.56
2023-03-04T08:06:23.325Z,4.63
2023-03-04T08:07:23.299Z,4.67
2023-03-04T08:08:23.349Z,4.77
2023-03-04T08:09:23.287Z,4.77
2023-03-04T08:10:23.262Z,4.87
2023-03-04T08:11:23.273Z,4.92
2023-03-04T08:12:23.235Z,4.92
2023-03-04T08:13:25.556Z,4.97
2023-03-04T08:14:23.273Z,5.02
2023-03-04T08:15:23.204Z,5.05
2023-03-04T08:16:23.212Z,5.00
2023-03-04T08:17:23.178Z,4.97
2023-03-04T08:18:23.228Z,5.02
2023-03-04T08:19:25.618Z,5.08
2023-03-04T08:20:23.182Z,5.02
2023-03-04T08:21:23.178Z,5.10
2023-03-04T08:22:23.134Z,5.07
2023-03-04T08:23:23.281Z,5.15
2023-03-04T08:24:23.138Z,5.11
2023-03-04T08:25:23.116Z,5.18
2023-03-04T08:26:23.138Z,5.23
2023-03-04T08:27:23.073Z,5.23
2023-03-04T08:28:23.060Z,5.26
2023-03-04T08:29:23.071Z,5.41
2023-03-04T08:30:23.046Z,5.39
2023-03-04T08:31:23.237Z,5.38
2023-03-04T08:32:23.199Z,5.54
2023-03-04T08:33:23.001Z,5.48
2023-03-04T08:34:22.996Z,5.68
2023-03-04T08:35:23.042Z,5.71
2023-03-04T08:36:22.970Z,5.79
2023-03-04T08:37:23.000Z,5.75
2023-03-04T08:38:22.977Z,5.89
2023-03-04T08:39:22.938Z,5.97
2023-03-04T08:40:22.932Z,6.05
2023-03-04T08:41:22.917Z,6.08
2023-03-04T08:42:22.911Z,6.09
2023-03-04T08:43:22.892Z,6.20
2023-03-04T08:44:25.098Z,6.31
2023-03-04T08:45:22.870Z,6.39
2023-03-04T08:46:22.909Z,6.35
2023-03-04T08:47:22.848Z,6.38
2023-03-04T08:48:22.842Z,6.46
2023-03-04T08:49:22.852Z,6.59
2023-03-04T08:50:22.877Z,6.63
2023-03-04T08:51:22.802Z,6.59
2023-03-04T08:52:22.791Z,6.70
2023-03-04T08:53:22.840Z,6.77
2023-03-04T08:54:22.785Z,6.85
2023-03-04T08:55:22.776Z,6.85
2023-03-04T08:56:22.790Z,6.92
2023-03-04T08:57:22.739Z,6.97
2023-03-04T08:58:22.728Z,7.00
2023-03-04T08:59:22.734Z,7.06
2023-03-04T09:00:22.700Z,7.05
2023-03-04T09:01:22.725Z,7.11
2023-03-04T09:02:22.761Z,7.13
2023-03-04T09:03:22.689Z,7.25
2023-03-04T09:04:22.659Z,7.36
2023-03-04T09:05:22.675Z,7.38
2023-03-04T09:06:22.644Z,7.40
2023-03-04T09:07:22.640Z,7.50
2023-03-04T09:08:22.690Z,7.50
2023-03-04T09:09:22.637Z,7.58
2023-03-04T09:10:22.597Z,7.57
2023-03-04T09:11:22.582Z,7.66
2023-03-04T09:12:22.565Z,7.73
2023-03-04T09:13:24.587Z,7.79
2023-03-04T09:14:22.602Z,7.82
2023-03-04T09:15:22.532Z,7.75
2023-03-04T09:16:22.618Z,7.80
2023-03-04T09:17:22.567Z,7.94
2023-03-04T09:18:22.501Z,7.83
2023-03-04T09:19:22.495Z,8.05
2023-03-04T09:20:22.521Z,7.93
2023-03-04T09:21:22.481Z,8.06
2023-03-04T09:22:22.462Z,8.09
2023-03-04T09:23:22.464Z,8.10
2023-03-04T09:24:22.432Z,8.15
2023-03-04T09:25:22.445Z,8.13
2023-03-04T09:26:22.567Z,8.18
2023-03-04T09:27:22.400Z,8.26
2023-03-04T09:28:22.387Z,8.26
2023-03-04T09:29:22.376Z,8.33
2023-03-04T09:30:22.382Z,8.38
2023-03-04T09:31:22.422Z,8.38
2023-03-04T09:32:22.413Z,8.37
2023-03-04T09:33:22.332Z,8.33
2023-03-04T09:34:22.328Z,8.53
2023-03-04T09:35:22.344Z,8.51
2023-03-04T09:36:22.342Z,8.45
2023-03-04T09:37:22.305Z,8.55
2023-03-04T09:38:22.347Z,8.52
2023-03-04T09:39:22.266Z,8.63
2023-03-04T09:40:22.258Z,8.60
2023-03-04T09:41:22.357Z,8.73
2023-03-04T09:42:22.239Z,8.66
2023-03-04T09:43:22.225Z,8.81
2023-03-04T09:44:22.271Z,8.81
2023-03-04T09:45:22.195Z,8.89
2023-03-04T09:46:22.249Z,8.81
2023-03-04T09:47:22.225Z,8.91
2023-03-04T09:48:22.181Z,9.02
2023-03-04T09:49:22.159Z,9.13
2023-03-04T09:50:22.231Z,9.19
2023-03-04T09:51:22.136Z,9.18
2023-03-04T09:52:22.139Z,9.23
2023-03-04T09:53:22.113Z,9.31
2023-03-04T09:54:22.101Z,9.32
2023-03-04T09:55:22.086Z,9.43
2023-03-04T09:56:22.114Z,9.44
2023-03-04T09:57:22.085Z,9.50
2023-03-04T09:58:22.044Z,9.54
2023-03-04T09:59:22.037Z,9.59
2023-03-04T10:00:22.101Z,9.59
2023-03-04T10:01:22.014Z,9.65
2023-03-04T10:02:22.037Z,9.65
2023-03-04T10:03:22.014Z,9.74
2023-03-04T10:04:22.016Z,9.64
2023-03-04T10:05:22.120Z,9.73
2023-03-04T10:06:21.955Z,9.69
2023-03-04T10:07:21.948Z,9.74
2023-03-04T10:08:21.970Z,9.79
2023-03-04T10:09:21.923Z,9.89
2023-03-04T10:10:22.006Z,9.83
2023-03-04T10:11:21.903Z,9.91
2023-03-04T10:12:21.888Z,9.86
2023-03-04T10:13:21.916Z,9.92
2023-03-04T10:14:21.973Z,9.98
2023-03-04T10:15:21.858Z,9.98
2023-03-04T10:16:21.968Z,9.94
2023-03-04T10:17:21.833Z,10.02
2023-03-04T10:18:21.826Z,10.07
2023-03-04T10:19:21.819Z,10.04
2023-03-04T10:20:21.834Z,10.05
2023-03-04T10:21:21.824Z,10.13
2023-03-04T10:22:21.778Z,10.12
2023-03-04T10:23:21.768Z,10.20
2023-03-04T10:24:21.820Z,10.16
2023-03-04T10:25:21.751Z,10.20
2023-03-04T10:26:21.784Z,10.16
2023-03-04T10:27:21.722Z,10.22
2023-03-04T10:28:21.710Z,10.19
2023-03-04T10:29:21.723Z,10.25
2023-03-04T10:30:21.730Z,10.26
2023-03-04T10:31:21.716Z,10.38
2023-03-04T10:32:21.734Z,10.35
2023-03-04T10:33:21.660Z,10.37
2023-03-04T10:34:21.649Z,10.46
2023-03-04T10:35:21.697Z,10.46
2023-03-04T10:36:21.628Z,10.48
2023-03-04T10:37:21.600Z,10.40
2023-03-04T10:38:21.653Z,10.49
2023-03-04T10:39:21.574Z,10.56
2023-03-04T10:40:21.694Z,10.54
2023-03-04T10:41:21.548Z,10.63
2023-03-04T10:42:21.659Z,10.64
2023-03-04T10:43:21.561Z,10.72
2023-03-04T10:44:21.546Z,10.74
2023-03-04T10:45:21.717Z,10.76
2023-03-04T10:46:22.692Z,10.75
2023-03-04T10:47:21.488Z,10.86
2023-03-04T10:48:21.470Z,10.84
2023-03-04T10:49:21.461Z,10.78
2023-03-04T10:50:21.496Z,10.87
2023-03-04T10:51:21.439Z,10.89
2023-03-04T10:52:21.428Z,10.87
2023-03-04T10:53:21.408Z,10.96
2023-03-04T10:54:21.401Z,10.94
2023-03-04T10:55:21.400Z,11.00
2023-03-04T10:56:21.464Z,11.08
2023-03-04T10:57:21.379Z,11.11
2023-03-04T10:58:21.351Z,11.11
2023-03-04T10:59:21.349Z,11.08
2023-03-04T11:00:21.374Z,11.05
2023-03-04T11:01:21.404Z,11.04
2023-03-04T11:02:21.347Z,11.10
2023-03-04T11:03:21.344Z,11.14
2023-03-04T11:04:21.283Z,11.19
2023-03-04T11:05:21.279Z,11.23
2023-03-04T11:06:21.275Z,11.22
2023-03-04T11:07:21.302Z,11.10
2023-03-04T11:08:21.280Z,11.02
2023-03-04T11:09:21.245Z,11.00
2023-03-04T11:10:21.216Z,11.05
2023-03-04T11:11:21.207Z,11.00
2023-03-04T11:12:21.189Z,11.02
2023-03-04T11:13:21.189Z,10.99
2023-03-04T11:14:21.220Z,10.97
2023-03-04T11:15:21.163Z,11.04
2023-03-04T11:16:21.183Z,11.00
2023-03-04T11:17:21.197Z,10.94
2023-03-04T11:18:21.124Z,10.96
2023-03-04T11:19:21.121Z,11.02
2023-03-04T11:20:21.161Z,11.04
2023-03-04T11:21:21.094Z,10.97
2023-03-04T11:22:21.080Z,10.92
2023-03-04T11:23:21.068Z,10.99
2023-03-04T11:24:28.758Z,11.00
2023-03-04T11:25:22.080Z,11.04
2023-03-04T11:26:21.030Z,10.99
2023-03-04T11:27:21.016Z,10.93
2023-03-04T11:28:21.010Z,10.96
2023-03-04T11:29:21.004Z,10.97
2023-03-04T11:30:20.982Z,11.07
2023-03-04T11:31:21.067Z,10.94
2023-03-04T11:32:21.144Z,11.05
2023-03-04T11:33:21.147Z,10.96
2023-03-04T11:34:20.961Z,11.04
2023-03-04T11:35:21.035Z,11.19
2023-03-04T11:36:20.939Z,11.25
2023-03-04T11:37:20.956Z,11.23
2023-03-04T11:38:20.914Z,11.17
2023-03-04T11:39:20.892Z,11.25
2023-03-04T11:40:23.576Z,11.25
2023-03-04T11:41:20.885Z,11.19
2023-03-04T11:42:20.871Z,11.26
2023-03-04T11:43:20.894Z,11.27
2023-03-04T11:44:20.851Z,11.25
2023-03-04T11:45:28.902Z,11.27
2023-03-04T11:46:21.894Z,11.25
2023-03-04T11:47:20.818Z,11.25
2023-03-04T11:48:20.833Z,11.22
2023-03-04T11:49:20.842Z,11.27
2023-03-04T11:50:20.823Z,11.27
2023-03-04T11:51:20.780Z,11.25
2023-03-04T11:52:20.801Z,11.36
2023-03-04T11:53:20.757Z,11.32
2023-03-04T11:54:20.768Z,11.19
2023-03-04T11:55:20.768Z,11.22
2023-03-04T11:56:20.744Z,11.23
2023-03-04T11:57:20.708Z,11.22
2023-03-04T11:58:20.693Z,11.25
2023-03-04T11:59:20.683Z,11.23
2023-03-04T12:00:20.676Z,11.19
2023-03-04T12:01:20.726Z,11.25
2023-03-04T12:02:20.659Z,11.26
2023-03-04T12:03:20.821Z,11.22
2023-03-04T12:04:20.707Z,11.15
2023-03-04T12:05:20.922Z,11.23
2023-03-04T12:06:20.611Z,11.23
2023-03-04T12:07:20.769Z,11.23
2023-03-04T12:08:20.726Z,11.23
2023-03-04T12:09:20.570Z,11.29
2023-03-04T12:10:20.628Z,11.23
2023-03-04T12:11:20.597Z,11.23
2023-03-04T12:12:20.562Z,11.26
2023-03-04T12:13:20.563Z,11.23
2023-03-04T12:14:22.541Z,11.23
2023-03-04T12:15:20.509Z,11.29
2023-03-04T12:16:20.635Z,11.22
2023-03-04T12:17:20.515Z,11.26
2023-03-04T12:18:20.591Z,11.23
2023-03-04T12:19:20.592Z,11.25
2023-03-04T12:20:20.783Z,11.25
2023-03-04T12:21:20.569Z,11.23
2023-03-04T12:22:20.459Z,11.27
2023-03-04T12:23:20.525Z,11.22
2023-03-04T12:24:20.409Z,11.29
2023-03-04T12:25:20.490Z,11.25
2023-03-04T12:26:20.409Z,11.22
2023-03-04T12:27:20.371Z,11.19
2023-03-04T12:28:20.506Z,11.23
2023-03-04T12:29:20.344Z,11.23
2023-03-04T12:30:20.455Z,11.25
2023-03-04T12:31:21.041Z,11.25
2023-03-04T12:32:20.590Z,11.30
2023-03-04T12:33:20.344Z,11.25
2023-03-04T12:34:20.630Z,11.19
2023-03-04T12:35:20.652Z,11.11
2023-03-04T12:36:20.424Z,11.18
2023-03-04T12:37:20.317Z,11.17
2023-03-04T12:38:20.496Z,11.23
2023-03-04T12:39:20.531Z,11.23
2023-03-04T12:40:20.629Z,11.22
2023-03-04T12:41:20.584Z,11.23
2023-03-04T12:42:20.795Z,11.19
2023-03-04T12:43:20.299Z,11.23
2023-03-04T12:44:20.315Z,11.29
2023-03-04T12:45:20.186Z,11.26
2023-03-04T12:46:20.211Z,11.19
2023-03-04T12:47:20.142Z,11.22
2023-03-04T12:48:20.135Z,11.23
2023-03-04T12:49:20.148Z,11.26
2023-03-04T12:50:20.123Z,11.29
2023-03-04T12:51:20.094Z,11.29
2023-03-04T12:52:20.091Z,11.25
2023-03-04T12:53:20.129Z,11.26
2023-03-04T12:54:20.059Z,11.23
2023-03-04T12:55:20.141Z,11.26
2023-03-04T12:56:20.035Z,11.25
2023-03-04T12:57:20.051Z,11.23
2023-03-04T12:58:20.024Z,11.23
2023-03-04T12:59:20.023Z,11.30
2023-03-04T13:00:20.001Z,11.27
2023-03-04T13:01:20.082Z,11.23
2023-03-04T13:02:20.023Z,11.18
2023-03-04T13:03:20.193Z,11.26
2023-03-04T13:04:19.951Z,11.14
2023-03-04T13:05:19.943Z,11.18
2023-03-04T13:06:19.934Z,11.18
2023-03-04T13:07:19.972Z,11.15
2023-03-04T13:08:19.897Z,11.25
2023-03-04T13:09:19.928Z,11.18
2023-03-04T13:10:19.884Z,11.18
2023-03-04T13:11:19.866Z,11.22
2023-03-04T13:12:22.226Z,11.18